Time;durP1;ratioP1;P1;durP2;ratioP2;P2;SDS_P1;SDS_P2;PMS_P1;PMS_P2;Temp;Humidity;BMP_temperature;BMP_pressure;BME280_temperature;BME280_humidity;BME280_pressure;Samples;Min_cycle;Max_cycle;Signal;HPM_P1;HPM_P2
2024/01/31 00:01:41;;;;;;;2.37;2.17;;;4.10;79.60;;;;;;6331265;22;20196;-84
2024/01/31 00:04:09;;;;;;;1.00;1.00;;;4.00;79.50;;;;;;6325772;22;20211;-85
2024/01/31 00:06:40;;;;;;;2.10;1.73;;;4.00;79.50;;;;;;6330240;22;20477;-85
2024/01/31 00:09:09;;;;;;;4.57;2.40;;;4.00;79.50;;;;;;6332234;22;20180;-87
2024/01/31 00:11:37;;;;;;;1.50;1.40;;;4.00;79.40;;;;;;6333469;22;20173;-87
2024/01/31 00:14:07;;;;;;;2.50;2.30;;;4.00;79.70;;;;;;6328488;22;20172;-87
2024/01/31 00:16:36;;;;;;;4.13;2.60;;;3.90;79.70;;;;;;6333975;22;20231;-87
2024/01/31 00:19:04;;;;;;;3.43;3.13;;;3.90;79.70;;;;;;6329073;22;20176;-88
2024/01/31 00:21:33;;;;;;;4.50;2.63;;;3.90;79.60;;;;;;6330608;22;20659;-86
2024/01/31 00:24:03;;;;;;;1.50;1.43;;;3.90;79.80;;;;;;6326574;22;20208;-87
2024/01/31 00:26:31;;;;;;;1.60;1.43;;;3.80;79.70;;;;;;6333216;22;20188;-87
2024/01/31 00:28:59;;;;;;;2.17;1.97;;;3.80;79.80;;;;;;6333499;22;20627;-86
2024/01/31 00:31:28;;;;;;;5.23;2.87;;;3.80;80.00;;;;;;6333586;22;20169;-87
2024/01/31 00:33:57;;;;;;;1.43;1.33;;;3.80;80.00;;;;;;6329808;22;20558;-87
2024/01/31 00:36:25;;;;;;;1.70;1.60;;;3.70;80.10;;;;;;6333684;22;20173;-89
2024/01/31 00:38:54;;;;;;;2.17;1.20;;;3.70;80.20;;;;;;6334455;22;20176;-89
2024/01/31 00:41:26;;;;;;;1.20;1.13;;;3.70;80.20;;;;;;6334093;22;20730;-88
2024/01/31 00:43:55;;;;;;;1.73;1.37;;;3.60;80.40;;;;;;6331064;22;20171;-88
2024/01/31 00:46:23;;;;;;;3.10;1.93;;;3.60;80.50;;;;;;6334027;22;20219;-86
2024/01/31 00:48:52;;;;;;;2.37;2.17;;;3.60;80.50;;;;;;6332598;22;20168;-84
2024/01/31 00:51:21;;;;;;;3.00;2.80;;;3.60;80.60;;;;;;6330036;22;20206;-86
2024/01/31 00:53:49;;;;;;;3.07;2.80;;;3.50;80.80;;;;;;6329829;22;20623;-86
2024/01/31 00:56:18;;;;;;;2.17;1.53;;;3.50;81.00;;;;;;6333958;22;20256;-86
2024/01/31 00:58:48;;;;;;;2.07;1.97;;;3.40;81.00;;;;;;6335188;22;20307;-89
2024/01/31 01:01:17;;;;;;;7.20;2.33;;;3.50;81.00;;;;;;6333159;22;20207;-88
2024/01/31 01:03:46;;;;;;;2.60;2.40;;;3.40;81.10;;;;;;6331938;22;20616;-89
2024/01/31 01:06:14;;;;;;;1.07;1.03;;;3.40;81.10;;;;;;6332590;22;20195;-89
2024/01/31 01:08:43;;;;;;;3.03;2.73;;;3.40;81.00;;;;;;6333018;22;20168;-93
2024/01/31 01:11:11;;;;;;;1.40;1.40;;;3.40;81.00;;;;;;6334851;22;20624;-93
2024/01/31 01:13:40;;;;;;;3.73;2.80;;;3.40;81.20;;;;;;6331392;22;20456;-92
2024/01/31 01:16:10;;;;;;;2.57;2.03;;;3.40;81.10;;;;;;6336281;22;20160;-92
2024/01/31 01:18:38;;;;;;;2.97;2.77;;;3.40;81.00;;;;;;6337976;22;20176;-92
2024/01/31 01:21:07;;;;;;;3.47;3.17;;;3.30;81.30;;;;;;6335279;22;20729;-92
2024/01/31 01:23:35;;;;;;;3.27;1.47;;;3.30;81.40;;;;;;6330701;22;20507;-93
2024/01/31 01:26:04;;;;;;;3.80;2.40;;;3.30;81.60;;;;;;6333241;22;20666;-92
2024/01/31 01:28:33;;;;;;;7.33;2.70;;;3.30;81.40;;;;;;6333550;22;20164;-92
2024/01/31 01:31:02;;;;;;;1.20;1.17;;;3.20;81.40;;;;;;6335519;22;20228;-92
2024/01/31 01:33:32;;;;;;;2.30;2.10;;;3.20;81.40;;;;;;6332616;22;20172;-92
2024/01/31 01:36:00;;;;;;;1.70;1.60;;;3.20;81.40;;;;;;6334370;22;20687;-92
2024/01/31 01:38:29;;;;;;;3.07;2.77;;;3.20;81.40;;;;;;6335359;22;20168;-87
2024/01/31 01:40:57;;;;;;;7.63;1.53;;;3.20;81.40;;;;;;6333144;22;20182;-88
2024/01/31 01:43:26;;;;;;;1.83;1.73;;;3.20;81.40;;;;;;6328650;22;20171;-87
2024/01/31 01:46:03;;;;;;;5.13;2.30;;;3.20;81.60;;;;;;6333861;22;20596;-88
2024/01/31 01:48:33;;;;;;;3.70;2.17;;;3.20;81.60;;;;;;6333897;22;20188;-88
2024/01/31 01:51:02;;;;;;;1.97;1.87;;;3.10;81.80;;;;;;6334303;22;20168;-87
2024/01/31 01:53:34;;;;;;;3.03;2.77;;;3.10;81.80;;;;;;6330416;22;20202;-87
2024/01/31 01:56:04;;;;;;;2.27;2.03;;;3.10;81.70;;;;;;6332511;22;20164;-88
2024/01/31 01:58:33;;;;;;;3.97;2.70;;;3.10;81.90;;;;;;6332716;22;20170;-88
2024/01/31 02:01:02;;;;;;;4.47;2.03;;;3.10;81.70;;;;;;6332129;22;20646;-86
2024/01/31 02:03:31;;;;;;;3.00;1.70;;;3.10;81.60;;;;;;6330022;22;20164;-86
2024/01/31 02:06:01;;;;;;;2.77;2.53;;;3.10;81.60;;;;;;6332940;22;20188;-86
2024/01/31 02:08:30;;;;;;;5.23;3.97;;;3.10;81.60;;;;;;6333352;22;20229;-86
2024/01/31 02:10:59;;;;;;;2.97;1.73;;;3.10;81.60;;;;;;6332267;22;20168;-85
2024/01/31 02:13:27;;;;;;;2.03;1.93;;;3.20;81.60;;;;;;6327828;22;20667;-86
2024/01/31 02:15:57;;;;;;;1.83;1.73;;;3.20;81.60;;;;;;6332680;22;20551;-84
2024/01/31 02:18:27;;;;;;;3.63;3.33;;;3.10;81.50;;;;;;6340858;22;20168;-84
2024/01/31 02:20:56;;;;;;;3.40;3.10;;;3.20;81.40;;;;;;6347127;22;20171;-84
2024/01/31 02:23:26;;;;;;;2.37;2.17;;;3.20;81.40;;;;;;6333380;22;20169;-85
2024/01/31 02:25:55;;;;;;;1.57;1.47;;;3.20;81.40;;;;;;6331008;22;20639;-85
2024/01/31 02:28:23;;;;;;;3.60;2.37;;;3.20;81.40;;;;;;6332084;22;20616;-85
2024/01/31 02:30:52;;;;;;;4.43;2.40;;;3.20;81.20;;;;;;6331127;22;20193;-85
2024/01/31 02:33:21;;;;;;;2.70;2.50;;;3.20;81.20;;;;;;6330905;22;20247;-84
2024/01/31 02:35:49;;;;;;;0.97;0.93;;;3.20;81.10;;;;;;6331952;22;20557;-85
2024/01/31 02:38:18;;;;;;;4.70;3.33;;;3.20;81.00;;;;;;6333359;22;20226;-85
2024/01/31 02:40:48;;;;;;;0.93;0.93;;;3.20;80.90;;;;;;6330653;22;20632;-85
2024/01/31 02:43:16;;;;;;;3.25;2.33;;;3.20;80.90;;;;;;6328848;22;20385;-84
2024/01/31 02:45:45;;;;;;;1.50;1.40;;;3.20;80.90;;;;;;6332330;22;20167;-85
2024/01/31 02:48:13;;;;;;;1.53;1.43;;;3.20;80.90;;;;;;6331217;22;20164;-85
2024/01/31 02:50:43;;;;;;;3.00;2.80;;;3.20;80.80;;;;;;6331988;22;20200;-84
2024/01/31 02:53:11;;;;;;;2.30;1.90;;;3.20;80.70;;;;;;6331912;22;20178;-85
2024/01/31 02:55:40;;;;;;;1.67;1.57;;;3.20;80.80;;;;;;6331371;22;20172;-85
2024/01/31 02:58:11;;;;;;;1.50;1.40;;;3.30;80.80;;;;;;6333702;22;20230;-85
2024/01/31 03:00:40;;;;;;;2.67;2.47;;;3.20;80.70;;;;;;6332338;22;20164;-84
2024/01/31 03:03:08;;;;;;;1.37;1.27;;;3.20;80.60;;;;;;6328714;22;20656;-85
2024/01/31 03:05:37;;;;;;;2.47;2.27;;;3.20;80.60;;;;;;6330130;22;20170;-85
2024/01/31 03:08:06;;;;;;;0.90;0.90;;;3.20;80.50;;;;;;6330301;22;20284;-85
2024/01/31 03:10:34;;;;;;;5.97;1.57;;;3.30;80.60;;;;;;6332331;22;20168;-84
2024/01/31 03:13:03;;;;;;;2.03;1.93;;;3.20;80.50;;;;;;6330653;22;20175;-85
2024/01/31 03:15:33;;;;;;;2.93;2.57;;;3.20;80.40;;;;;;6329952;22;20292;-86
2024/01/31 03:18:02;;;;;;;1.43;1.37;;;3.30;80.50;;;;;;6327656;22;20164;-86
2024/01/31 03:20:30;;;;;;;2.43;2.23;;;3.30;80.50;;;;;;6328778;22;20183;-86
2024/01/31 03:22:59;;;;;;;3.60;2.57;;;3.30;80.60;;;;;;6332141;22;20172;-86
2024/01/31 03:25:28;;;;;;;4.10;2.63;;;3.30;80.40;;;;;;6328270;22;20172;-85
2024/01/31 03:27:56;;;;;;;9.63;2.87;;;3.30;80.40;;;;;;6331741;22;20199;-86
2024/01/31 03:30:25;;;;;;;2.40;1.67;;;3.30;80.20;;;;;;6331725;22;20639;-86
2024/01/31 03:32:55;;;;;;;2.33;2.23;;;3.30;80.10;;;;;;6331312;22;20337;-86
2024/01/31 03:35:24;;;;;;;1.27;1.20;;;3.30;80.10;;;;;;6329069;22;21043;-86
2024/01/31 03:37:52;;;;;;;2.27;2.10;;;3.30;80.10;;;;;;6331184;22;20188;-85
2024/01/31 03:40:21;;;;;;;3.97;2.60;;;3.30;80.10;;;;;;6332337;22;20263;-86
2024/01/31 03:42:50;;;;;;;2.70;2.33;;;3.30;80.10;;;;;;6330961;22;20179;-85
2024/01/31 03:45:19;;;;;;;1.90;1.80;;;3.30;80.10;;;;;;6328794;22;20168;-86
2024/01/31 03:47:48;;;;;;;1.97;1.80;;;3.30;80.10;;;;;;6332652;22;20657;-86
2024/01/31 03:50:18;;;;;;;1.40;1.30;;;3.30;80.00;;;;;;6331642;22;20168;-86
2024/01/31 03:52:47;;;;;;;2.47;2.27;;;3.20;80.00;;;;;;6334192;22;20163;-84
2024/01/31 03:55:15;;;;;;;3.03;2.63;;;3.20;79.80;;;;;;6330654;22;20176;-85
2024/01/31 03:57:44;;;;;;;2.90;2.67;;;3.20;79.90;;;;;;6336564;22;20183;-85
2024/01/31 04:00:14;;;;;;;3.00;2.80;;;3.20;79.90;;;;;;6332330;22;20178;-85
2024/01/31 04:02:42;;;;;;;2.87;2.10;;;3.20;79.80;;;;;;6334680;22;20523;-85
2024/01/31 04:05:11;;;;;;;3.20;2.37;;;3.20;79.80;;;;;;6331545;22;20502;-85
2024/01/31 04:07:44;;;;;;;5.43;3.10;;;3.20;80.70;;;;;;6333643;22;20195;-85
2024/01/31 04:10:14;;;;;;;1.93;1.83;;;3.20;79.80;;;;;;6332878;22;20232;-85
2024/01/31 04:12:43;;;;;;;1.73;1.43;;;3.20;79.80;;;;;;6334211;22;20705;-83
2024/01/31 04:15:12;;;;;;;3.27;3.00;;;3.10;79.70;;;;;;6329543;22;20499;-85
2024/01/31 04:17:40;;;;;;;3.70;2.57;;;3.10;79.60;;;;;;6336289;22;20161;-84
2024/01/31 04:20:11;;;;;;;4.10;2.37;;;3.10;79.70;;;;;;6332590;22;20548;-85
2024/01/31 04:22:41;;;;;;;1.47;1.43;;;3.10;79.70;;;;;;6334122;22;20173;-85
2024/01/31 04:25:10;;;;;;;6.10;2.50;;;3.10;79.70;;;;;;6329508;22;20456;-85
2024/01/31 04:27:39;;;;;;;4.60;2.57;;;3.10;79.70;;;;;;6331538;22;20651;-84
2024/01/31 04:30:11;;;;;;;4.47;2.20;;;3.10;79.80;;;;;;6333757;22;20168;-84
2024/01/31 04:32:40;;;;;;;1.60;1.50;;;3.10;79.80;;;;;;6331265;22;20165;-84
2024/01/31 04:35:09;;;;;;;2.23;2.10;;;3.10;79.70;;;;;;6328551;22;20164;-84
2024/01/31 04:40:22;;;;;;;4.77;1.83;;;3.20;79.70;;;;;;6327208;22;20171;-84
2024/01/31 04:42:50;;;;;;;2.00;1.23;;;3.10;79.50;;;;;;6329072;22;20169;-84
2024/01/31 04:45:22;;;;;;;1.80;1.20;;;3.10;79.50;;;;;;6325326;22;20246;-84
2024/01/31 04:47:50;;;;;;;7.70;4.37;;;3.20;79.50;;;;;;6329670;22;20198;-84
2024/01/31 04:50:33;;;;;;;1.83;1.73;;;3.10;79.50;;;;;;6329205;22;20171;-83
2024/01/31 04:53:01;;;;;;;1.97;1.70;;;3.10;79.50;;;;;;6327400;22;20278;-85
2024/01/31 04:55:31;;;;;;;5.27;3.37;;;3.10;79.40;;;;;;6328391;22;20517;-83
2024/01/31 04:58:00;;;;;;;1.07;1.00;;;3.10;79.40;;;;;;6337059;22;20571;-85
2024/01/31 05:00:28;;;;;;;10.63;2.57;;;3.10;79.40;;;;;;6342518;22;20181;-86
2024/01/31 05:02:57;;;;;;;1.17;1.17;;;3.10;79.40;;;;;;6342057;22;20222;-85
2024/01/31 05:05:25;;;;;;;2.10;2.00;;;3.10;79.40;;;;;;6330805;22;20475;-84
2024/01/31 05:07:54;;;;;;;1.57;1.47;;;3.00;79.30;;;;;;6331659;22;20405;-85
2024/01/31 05:10:23;;;;;;;1.07;1.07;;;3.00;79.40;;;;;;6330819;22;20178;-85
2024/01/31 05:12:53;;;;;;;3.33;2.40;;;3.00;79.40;;;;;;6331108;22;20200;-84
2024/01/31 05:15:22;;;;;;;4.93;2.93;;;3.00;79.40;;;;;;6328545;22;20177;-85
2024/01/31 05:17:50;;;;;;;3.10;2.57;;;3.00;80.30;;;;;;6334428;22;20270;-88
2024/01/31 05:20:19;;;;;;;2.10;1.90;;;2.90;79.50;;;;;;6333863;22;20168;-87
2024/01/31 05:22:48;;;;;;;2.17;2.03;;;2.90;79.50;;;;;;6332026;22;20374;-88
2024/01/31 05:25:17;;;;;;;2.27;2.07;;;2.90;79.50;;;;;;6330470;22;20654;-89
2024/01/31 05:30:29;;;;;;;1.27;1.23;;;2.90;79.50;;;;;;6334234;22;20255;-89
2024/01/31 05:38:50;;;;;;;2.47;2.27;;;2.90;79.60;;;;;;6336300;22;20168;-90
2024/01/31 05:41:33;;;;;;;2.30;1.50;;;2.90;79.60;;;;;;6333072;22;20637;-88
2024/01/31 05:44:15;;;;;;;3.03;2.83;;;2.90;79.70;;;;;;6329518;22;20164;-89
2024/01/31 05:46:47;;;;;;;7.40;1.87;;;2.90;79.70;;;;;;6336028;22;20171;-91
2024/01/31 05:49:15;;;;;;;3.37;2.67;;;2.80;80.40;;;;;;6332728;22;20190;-89
2024/01/31 05:51:44;;;;;;;2.57;2.37;;;2.80;79.60;;;;;;6334943;22;20163;-92
2024/01/31 05:54:13;;;;;;;1.60;1.37;;;2.80;79.70;;;;;;6330997;22;20781;-92
2024/01/31 05:56:42;;;;;;;2.27;2.10;;;2.80;79.70;;;;;;6337243;22;20171;-93
2024/01/31 05:59:11;;;;;;;4.50;3.77;;;2.70;79.90;;;;;;6335648;22;20499;-91
2024/01/31 06:01:39;;;;;;;4.17;1.87;;;2.70;80.00;;;;;;6338205;22;20196;-89
2024/01/31 06:04:09;;;;;;;3.63;1.73;;;2.70;80.00;;;;;;6333154;22;20197;-89
2024/01/31 06:09:48;;;;;;;3.63;3.03;;;2.60;80.40;;;;;;6333383;22;20172;-89
2024/01/31 06:15:26;;;;;;;3.70;2.23;;;2.60;80.60;;;;;;6332080;22;20168;-88
2024/01/31 06:17:55;;;;;;;2.63;2.43;;;2.60;81.10;;;;;;6332910;22;20249;-86
2024/01/31 06:20:25;;;;;;;4.00;3.47;;;2.60;80.70;;;;;;6335199;22;20170;-91
2024/01/31 06:22:53;;;;;;;3.43;3.13;;;2.50;80.80;;;;;;6334535;22;20260;-86
2024/01/31 06:25:22;;;;;;;3.97;2.90;;;2.60;80.80;;;;;;6331140;22;20175;-86
2024/01/31 06:27:51;;;;;;;12.57;4.13;;;2.60;80.90;;;;;;6334903;22;20420;-90
2024/01/31 06:30:21;;;;;;;3.27;3.07;;;2.60;81.10;;;;;;6335614;22;20163;-87
2024/01/31 06:32:50;;;;;;;3.43;2.70;;;2.60;81.20;;;;;;6334661;22;20766;-90
2024/01/31 06:35:18;;;;;;;1.97;1.80;;;2.60;81.20;;;;;;6331438;22;20232;-88
2024/01/31 06:37:48;;;;;;;3.27;2.27;;;2.60;81.20;;;;;;6330572;22;20198;-87
2024/01/31 06:40:17;;;;;;;3.63;3.30;;;2.60;81.20;;;;;;6334648;22;20179;-88
2024/01/31 06:42:48;;;;;;;4.17;3.80;;;2.50;81.30;;;;;;6334200;22;20505;-88
2024/01/31 06:45:17;;;;;;;3.47;3.13;;;2.50;81.50;;;;;;6331068;22;20210;-88
2024/01/31 06:47:45;;;;;;;4.83;2.33;;;2.60;81.50;;;;;;6335043;22;20167;-88
2024/01/31 06:50:14;;;;;;;5.20;3.47;;;2.60;81.70;;;;;;6334276;22;20167;-88
2024/01/31 06:52:43;;;;;;;2.93;2.67;;;2.70;81.80;;;;;;6334259;22;20174;-89
2024/01/31 06:55:14;;;;;;;3.67;3.10;;;2.70;81.80;;;;;;6331811;22;20544;-88
2024/01/31 06:57:42;;;;;;;4.37;2.90;;;2.60;81.80;;;;;;6335402;22;20204;-88
2024/01/31 07:00:11;;;;;;;3.93;2.70;;;2.60;82.00;;;;;;6332971;22;20186;-89
2024/01/31 07:02:40;;;;;;;1.70;1.60;;;2.60;82.10;;;;;;6335118;22;20667;-88
2024/01/31 07:05:09;;;;;;;1.90;1.73;;;2.70;82.10;;;;;;6330210;22;20214;-88
2024/01/31 07:07:37;;;;;;;2.03;1.87;;;2.70;82.20;;;;;;6334202;22;20569;-89
2024/01/31 07:10:07;;;;;;;2.27;2.13;;;2.70;82.10;;;;;;6333128;22;20203;-88
2024/01/31 07:12:38;;;;;;;3.20;1.33;;;2.80;82.40;;;;;;6334751;22;20175;-89
2024/01/31 07:15:08;;;;;;;1.97;1.87;;;2.80;82.40;;;;;;6330583;22;20166;-89
2024/01/31 07:17:36;;;;;;;2.00;1.90;;;2.80;82.50;;;;;;6333609;22;20518;-89
2024/01/31 07:20:06;;;;;;;6.37;4.57;;;2.90;82.60;;;;;;6329574;22;20165;-87
2024/01/31 07:22:35;;;;;;;3.57;3.27;;;3.00;82.60;;;;;;6333798;22;20175;-87
2024/01/31 07:25:05;;;;;;;3.67;2.40;;;3.00;82.50;;;;;;6330254;22;20180;-88
2024/01/31 07:27:33;;;;;;;1.97;1.77;;;3.10;82.30;;;;;;6338443;22;20171;-88
2024/01/31 07:30:04;;;;;;;2.23;2.03;;;3.10;82.10;;;;;;6335294;22;20692;-85
2024/01/31 07:32:33;;;;;;;3.80;2.67;;;3.10;82.10;;;;;;6337847;22;20977;-86
2024/01/31 07:35:03;;;;;;;1.63;1.53;;;3.10;82.00;;;;;;6333311;22;20174;-85
2024/01/31 07:37:32;;;;;;;3.07;2.77;;;3.20;82.00;;;;;;6338978;22;20186;-87
2024/01/31 07:40:00;;;;;;;3.50;3.07;;;3.20;82.00;;;;;;6338080;22;20175;-86
2024/01/31 07:42:29;;;;;;;6.13;3.13;;;3.30;82.00;;;;;;6346891;22;20631;-85
2024/01/31 07:44:58;;;;;;;4.37;3.63;;;3.40;81.90;;;;;;6338561;22;20171;-87
2024/01/31 07:47:28;;;;;;;3.37;3.07;;;3.40;81.90;;;;;;6334673;22;20247;-85
2024/01/31 07:49:57;;;;;;;7.37;2.90;;;3.40;81.70;;;;;;6335605;22;20192;-86
2024/01/31 07:52:26;;;;;;;1.53;1.40;;;3.50;81.90;;;;;;6335594;22;20196;-85
2024/01/31 07:54:55;;;;;;;3.13;2.43;;;3.60;82.00;;;;;;6332304;22;20199;-86
2024/01/31 07:57:24;;;;;;;3.60;3.03;;;3.70;81.90;;;;;;6335191;22;20176;-89
2024/01/31 08:02:36;;;;;;;3.40;3.10;;;3.80;81.60;;;;;;6334313;22;20189;-89
2024/01/31 08:05:06;;;;;;;1.57;1.47;;;3.90;81.40;;;;;;6333771;22;20168;-87
2024/01/31 08:07:34;;;;;;;3.27;2.97;;;3.90;81.20;;;;;;6331912;22;20615;-88
2024/01/31 08:13:13;;;;;;;4.23;2.63;;;4.20;81.30;;;;;;6334640;22;20164;-88
2024/01/31 08:21:22;;;;;;;2.97;2.37;;;4.30;80.90;;;;;;6333547;22;20168;-87
2024/01/31 08:23:50;;;;;;;0.87;0.87;;;4.40;81.00;;;;;;6333068;22;20504;-87
2024/01/31 08:26:19;;;;;;;2.57;2.07;;;4.50;81.00;;;;;;6333979;22;20175;-86
2024/01/31 08:28:47;;;;;;;6.63;3.20;;;4.50;80.90;;;;;;6336857;22;20695;-89
2024/01/31 08:31:23;;;;;;;4.00;2.90;;;4.50;80.60;;;;;;6335713;22;20172;-87
2024/01/31 08:34:08;;;;;;;1.90;1.80;;;4.60;80.60;;;;;;6335419;22;20164;-90
2024/01/31 08:36:51;;;;;;;6.07;2.80;;;4.60;80.20;;;;;;6332147;22;20214;-86
2024/01/31 08:39:19;;;;;;;2.43;2.23;;;4.70;80.20;;;;;;6330653;22;20541;-85
2024/01/31 08:41:47;;;;;;;3.63;3.13;;;4.80;80.30;;;;;;6333347;22;20172;-86
2024/01/31 08:44:30;;;;;;;1.47;1.37;;;4.90;80.30;;;;;;6330672;22;20164;-85
2024/01/31 08:46:59;;;;;;;3.83;2.50;;;5.00;80.40;;;;;;6334384;22;20168;-84
2024/01/31 08:49:43;;;;;;;1.90;1.80;;;5.10;79.80;;;;;;6330513;22;20639;-85
2024/01/31 08:55:08;;;;;;;4.37;2.90;;;5.10;79.40;;;;;;6325165;22;20182;-85
2024/01/31 08:57:51;;;;;;;2.40;2.20;;;5.30;79.10;;;;;;6330219;22;20229;-84
2024/01/31 09:00:20;;;;;;;4.07;3.57;;;5.30;78.10;;;;;;6334040;22;20176;-84
2024/01/31 09:02:48;;;;;;;4.37;2.80;;;5.40;78.50;;;;;;6335038;22;20191;-84
2024/01/31 09:05:32;;;;;;;2.53;2.37;;;5.50;78.70;;;;;;6329685;22;20165;-83
2024/01/31 09:08:02;;;;;;;2.73;2.07;;;5.60;78.70;;;;;;6328542;22;20221;-83
2024/01/31 09:10:31;;;;;;;2.37;2.17;;;5.70;78.60;;;;;;6296988;22;147960;-84
2024/01/31 09:15:42;;;;;;;5.40;2.47;;;5.80;78.60;;;;;;6271294;22;20177;-83
2024/01/31 09:18:11;;;;;;;6.83;3.47;;;5.90;78.60;;;;;;6270881;22;20173;-88
2024/01/31 09:20:55;;;;;;;8.23;4.03;;;6.00;78.70;;;;;;6273145;22;20619;-91
2024/01/31 09:23:24;;;;;;;4.43;2.73;;;6.10;78.30;;;;;;6270507;22;20196;-85
2024/01/31 09:28:35;;;;;;;4.67;2.87;;;6.30;78.80;;;;;;6273169;22;20170;-85
2024/01/31 09:31:22;;;;;;;3.43;2.17;;;6.40;79.30;;;;;;6267376;22;20530;-84
2024/01/31 09:34:04;;;;;;;2.30;2.10;;;6.50;78.40;;;;;;6268426;22;20512;-86
2024/01/31 09:36:34;;;;;;;1.27;1.20;;;6.50;78.00;;;;;;6268210;22;20174;-84
2024/01/31 09:39:03;;;;;;;2.53;2.33;;;6.60;78.30;;;;;;6272377;22;20633;-89
2024/01/31 09:41:32;;;;;;;3.77;2.67;;;6.60;78.00;;;;;;6272451;22;20165;-89
2024/01/31 09:44:01;;;;;;;12.03;3.80;;;6.60;78.00;;;;;;6271737;22;20175;-88
2024/01/31 09:46:32;;;;;;;2.43;2.20;;;6.70;78.30;;;;;;6273277;22;20245;-89
2024/01/31 09:49:01;;;;;;;3.23;3.03;;;6.80;78.40;;;;;;6273503;22;20691;-89
2024/01/31 09:51:32;;;;;;;3.10;2.73;;;6.90;78.50;;;;;;6270267;22;20763;-90
2024/01/31 09:54:02;;;;;;;3.20;2.30;;;7.00;78.40;;;;;;6270358;22;20181;-88
2024/01/31 09:59:27;;;;;;;3.87;2.47;;;7.20;77.50;;;;;;6271845;22;20177;-86
2024/01/31 10:04:39;;;;;;;4.83;2.27;;;7.30;76.40;;;;;;6268754;22;20261;-85
2024/01/31 10:07:08;;;;;;;7.57;3.33;;;7.40;75.80;;;;;;6271311;22;20212;-90
2024/01/31 10:12:38;;;;;;;2.77;1.97;;;7.60;75.00;;;;;;6274547;22;20181;-90
2024/01/31 10:17:51;;;;;;;2.53;2.13;;;7.70;74.50;;;;;;6272920;22;20177;-88
2024/01/31 10:20:20;;;;;;;4.73;2.30;;;7.70;74.10;;;;;;6272585;22;20166;-88
2024/01/31 10:22:49;;;;;;;1.53;1.43;;;7.80;74.60;;;;;;6276404;22;20166;-89
2024/01/31 10:25:19;;;;;;;2.00;1.27;;;7.90;74.00;;;;;;6283340;22;20177;-88
2024/01/31 10:28:04;;;;;;;2.83;2.53;;;7.90;74.20;;;;;;6289918;22;20165;-88
2024/01/31 10:30:33;;;;;;;4.27;2.87;;;8.00;74.50;;;;;;6273635;22;20216;-89
2024/01/31 10:33:02;;;;;;;4.83;3.63;;;8.10;74.30;;;;;;6272604;22;20166;-84
2024/01/31 10:35:31;;;;;;;7.63;2.92;;;8.10;73.80;;;;;;6267729;22;20380;-85
2024/01/31 10:38:20;;;;;;;2.40;2.20;;;8.20;73.70;;;;;;6274505;22;20506;-86
2024/01/31 10:40:52;;;;;;;1.77;1.67;;;8.30;73.30;;;;;;6273220;22;20174;-89
2024/01/31 10:43:22;;;;;;;2.93;2.30;;;8.30;73.30;;;;;;6273639;22;20174;-88
2024/01/31 10:45:51;;;;;;;2.80;1.77;;;8.40;72.20;;;;;;6271791;22;20244;-83
2024/01/31 10:48:19;;;;;;;3.70;2.07;;;8.50;72.60;;;;;;6274355;22;20610;-87
2024/01/31 10:50:49;;;;;;;4.00;2.33;;;8.60;72.20;;;;;;6276260;22;20194;-88
2024/01/31 10:53:19;;;;;;;3.63;1.53;;;8.70;71.20;;;;;;6274676;22;20174;-89
2024/01/31 10:55:50;;;;;;;2.00;1.43;;;8.70;70.20;;;;;;6268968;22;20219;-85
2024/01/31 10:58:22;;;;;;;3.37;2.53;;;8.70;70.60;;;;;;6271340;22;20170;-89
2024/01/31 11:00:50;;;;;;;2.30;1.43;;;8.80;70.10;;;;;;6272818;22;20304;-89
2024/01/31 11:03:19;;;;;;;1.20;1.10;;;8.90;70.00;;;;;;6271462;22;20194;-88
2024/01/31 11:05:49;;;;;;;1.77;1.67;;;8.90;70.50;;;;;;6273083;22;20197;-88
2024/01/31 11:08:19;;;;;;;4.23;1.90;;;9.00;70.50;;;;;;6273155;22;20252;-90
2024/01/31 11:10:48;;;;;;;3.53;2.50;;;9.10;69.90;;;;;;6271538;22;20200;-86
2024/01/31 11:13:18;;;;;;;2.80;2.37;;;9.10;69.80;;;;;;6269156;22;20166;-87
2024/01/31 11:16:00;;;;;;;1.50;1.40;;;9.20;69.60;;;;;;6271414;22;20162;-88
2024/01/31 11:18:31;;;;;;;3.17;2.70;;;9.20;69.30;;;;;;6271968;22;20162;-86
2024/01/31 11:24:14;;;;;;;3.60;1.33;;;9.40;69.40;;;;;;6267355;22;20168;-86
2024/01/31 11:26:43;;;;;;;2.67;1.53;;;9.50;68.30;;;;;;6273743;22;20196;-87
2024/01/31 11:29:15;;;;;;;3.30;2.10;;;9.50;67.60;;;;;;6274242;22;20177;-89
2024/01/31 11:31:44;;;;;;;0.67;0.67;;;9.50;67.80;;;;;;6272914;22;20276;-88
2024/01/31 11:34:14;;;;;;;2.57;1.40;;;9.60;67.80;;;;;;6268409;22;20169;-87
2024/01/31 11:36:43;;;;;;;4.27;1.37;;;9.50;67.50;;;;;;6273425;22;20556;-87
2024/01/31 11:39:11;;;;;;;2.07;1.50;;;9.60;67.70;;;;;;6270504;22;20457;-85
2024/01/31 11:41:40;;;;;;;1.53;1.43;;;9.70;67.80;;;;;;6272229;22;20178;-89
2024/01/31 11:44:08;;;;;;;1.77;1.63;;;9.70;66.90;;;;;;6272090;22;20227;-89
2024/01/31 11:46:38;;;;;;;1.33;1.10;;;9.70;66.30;;;;;;6271845;22;20228;-88
2024/01/31 11:49:07;;;;;;;1.43;1.33;;;9.80;66.60;;;;;;6272521;22;20188;-88
2024/01/31 11:51:36;;;;;;;0.87;0.87;;;9.90;66.80;;;;;;6272249;22;20260;-88
2024/01/31 11:54:05;;;;;;;1.30;1.00;;;9.90;66.60;;;;;;6266264;22;20165;-83
2024/01/31 11:56:37;;;;;;;2.07;1.97;;;9.90;65.60;;;;;;6268822;22;20180;-83
2024/01/31 11:59:06;;;;;;;4.70;1.53;;;10.00;66.40;;;;;;6271000;22;20174;-86
2024/01/31 12:01:35;;;;;;;2.30;2.10;;;10.00;66.30;;;;;;6269430;22;20197;-84
2024/01/31 12:04:06;;;;;;;2.13;0.90;;;10.00;66.20;;;;;;6266173;22;20624;-86
2024/01/31 12:06:34;;;;;;;2.07;1.57;;;10.10;66.70;;;;;;6267998;22;20170;-83
2024/01/31 12:09:04;;;;;;;0.90;0.90;;;10.10;66.60;;;;;;6270683;22;20166;-86
2024/01/31 12:11:34;;;;;;;2.17;0.90;;;10.20;66.90;;;;;;6270507;22;20664;-83
2024/01/31 12:14:02;;;;;;;1.30;1.10;;;10.20;66.10;;;;;;6268629;22;20172;-86
2024/01/31 12:16:40;;;;;;;1.00;0.60;;;10.30;66.20;;;;;;6272395;22;20197;-85
2024/01/31 12:19:10;;;;;;;3.37;2.53;;;10.30;66.70;;;;;;6274660;22;20196;-85
2024/01/31 12:21:43;;;;;;;1.17;1.13;;;10.30;66.50;;;;;;6276405;22;20727;-88
2024/01/31 12:24:11;;;;;;;2.50;1.30;;;10.40;66.40;;;;;;6267178;22;20189;-85
2024/01/31 12:26:40;;;;;;;1.73;1.33;;;10.40;66.00;;;;;;6271535;22;20208;-84
2024/01/31 12:29:09;;;;;;;1.40;1.13;;;10.40;65.10;;;;;;6272007;22;20158;-85
2024/01/31 12:31:37;;;;;;;4.47;1.80;;;10.50;65.70;;;;;;6273300;22;20189;-87
2024/01/31 12:34:06;;;;;;;1.10;0.80;;;10.50;65.10;;;;;;6269388;22;20168;-86
2024/01/31 12:36:36;;;;;;;1.73;1.07;;;10.50;64.70;;;;;;6272475;22;20165;-86
2024/01/31 12:39:08;;;;;;;3.90;0.87;;;10.50;64.10;;;;;;6273557;22;20172;-90
2024/01/31 12:41:37;;;;;;;2.00;0.83;;;10.50;63.80;;;;;;6272322;22;20181;-88
2024/01/31 12:44:06;;;;;;;1.27;1.17;;;10.60;63.50;;;;;;6270568;22;20170;-88
2024/01/31 12:46:35;;;;;;;2.17;1.80;;;10.50;64.10;;;;;;6274894;22;20219;-88
2024/01/31 12:49:03;;;;;;;3.40;2.13;;;10.70;64.50;;;;;;6273489;22;20260;-87
2024/01/31 12:54:43;;;;;;;10.63;1.33;;;10.70;64.10;;;;;;6268525;22;20628;-87
2024/01/31 12:57:12;;;;;;;2.13;1.20;;;10.80;64.40;;;;;;6270835;22;20464;-87
2024/01/31 12:59:40;;;;;;;1.87;1.73;;;10.80;64.50;;;;;;6274642;22;20170;-86
2024/01/31 13:02:09;;;;;;;5.33;2.33;;;10.80;64.10;;;;;;6271388;22;20231;-87
2024/01/31 13:04:37;;;;;;;2.90;1.83;;;10.80;64.30;;;;;;6270692;22;20169;-88
2024/01/31 13:07:08;;;;;;;1.83;1.30;;;10.90;63.80;;;;;;6272360;22;20189;-87
2024/01/31 13:09:37;;;;;;;1.03;0.97;;;10.90;63.70;;;;;;6284024;22;20170;-87
2024/01/31 13:12:06;;;;;;;1.60;1.23;;;11.00;64.20;;;;;;6288048;22;20245;-86
2024/01/31 13:14:40;;;;;;;2.20;1.47;;;11.20;63.80;;;;;;6275393;22;20207;-87
2024/01/31 13:17:09;;;;;;;2.00;1.03;;;11.40;63.80;;;;;;6271445;22;20166;-88
2024/01/31 13:19:38;;;;;;;0.83;0.80;;;11.60;62.30;;;;;;6273072;22;20169;-89
2024/01/31 13:22:08;;;;;;;2.40;2.10;;;11.70;61.60;;;;;;6270677;22;20165;-87
2024/01/31 13:24:37;;;;;;;1.83;0.93;;;12.00;61.70;;;;;;6269346;22;20174;-89
2024/01/31 13:27:06;;;;;;;2.10;0.80;;;12.20;61.90;;;;;;6274632;22;20208;-90
2024/01/31 13:29:34;;;;;;;1.90;1.43;;;12.30;61.80;;;;;;6275716;22;20618;-87
2024/01/31 13:32:03;;;;;;;1.33;1.00;;;12.50;61.10;;;;;;6270636;22;20201;-84
2024/01/31 13:34:32;;;;;;;1.07;0.97;;;12.70;60.30;;;;;;6268540;22;20176;-86
2024/01/31 13:37:01;;;;;;;8.80;0.98;;;13.00;59.40;;;;;;6270923;22;20523;-87
2024/01/31 13:39:31;;;;;;;2.63;1.33;;;13.50;59.90;;;;;;6271302;22;20241;-87
2024/01/31 13:42:02;;;;;;;0.95;0.90;;;14.10;58.60;;;;;;6270810;22;20520;-88
2024/01/31 13:44:31;;;;;;;1.30;1.20;;;15.10;57.70;;;;;;6269408;22;20165;-88
2024/01/31 13:46:59;;;;;;;2.05;1.23;;;16.40;52.50;;;;;;6272923;22;20585;-91
2024/01/31 13:49:28;;;;;;;1.27;1.17;;;18.30;49.00;;;;;;6272028;22;20193;-86
2024/01/31 13:51:56;;;;;;;4.88;1.38;;;19.80;45.40;;;;;;6270950;22;20232;-91
2024/01/31 13:54:25;;;;;;;0.88;0.85;;;21.90;43.20;;;;;;6268480;22;20176;-89
2024/01/31 13:56:55;;;;;;;2.65;1.67;;;24.30;39.10;;;;;;6273352;22;20176;-91
2024/01/31 13:59:24;;;;;;;1.13;0.93;;;24.50;37.80;;;;;;6272093;22;20249;-88
2024/01/31 14:01:52;;;;;;;0.98;0.98;;;24.10;37.90;;;;;;6270012;22;20197;-90
2024/01/31 14:04:25;;;;;;;1.13;1.02;;;23.10;39.30;;;;;;6271144;22;20170;-89